This is the latest recevied weather packets stored in our database for station/object KY0TEQ-13. If no packets are shown the sender has not sent any weather packets the latest 10 day(s).
| Time | Temp. | Humidity | Pressure | Rain* | Wind** | Luminosity | Snow |
|---|---|---|---|---|---|---|---|
| 1788412409 | 15.56° C | 57% | 1308.3 hPa | 0 mm | - | 0 W/m² | - |
| 1788412105 | 15.56° C | 56% | 1308.5 hPa | 0 mm | - | 0 W/m² | - |
| 1788411803 | 15° C | 58% | 1308.6 hPa | 0 mm | - | 0 W/m² | - |
| 1788411498 | 15° C | 59% | 1308.4 hPa | 0 mm | - | 0 W/m² | - |
| 1788411194 | 15.56° C | 56% | 1308.4 hPa | 0 mm | - | 0 W/m² | - |
| 1788410890 | 16.11° C | 55% | 1308.5 hPa | 0 mm | - | 0 W/m² | - |
| 1788410585 | 15.56° C | 56% | 1308.4 hPa | 0 mm | - | 0 W/m² | - |
| 1788410282 | 16.11° C | 55% | 1308.4 hPa | 0 mm | - | 0 W/m² | - |
| 1788409982 | 16.11° C | 55% | 1308.5 hPa | 0 mm | - | 0 W/m² | - |
| 1788409681 | 15° C | 57% | 1308.5 hPa | 0 mm | - | 0 W/m² | - |
| 1788409376 | 15° C | 59% | 1308.4 hPa | 0 mm | - | 0 W/m² | - |
| 1788409073 | 15.56° C | 57% | 1308.4 hPa | 0 mm | - | 0 W/m² | - |
| 1788408769 | 15.56° C | 55% | 1308.4 hPa | 0 mm | - | 0 W/m² | - |
| 1788408463 | 15° C | 57% | 1308.5 hPa | 0 mm | - | 0 W/m² | - |
| 1788408163 | 15° C | 58% | 1308.5 hPa | 0 mm | - | 0 W/m² | - |
| 1788407859 | 16.11° C | 55% | 1308.4 hPa | 0 mm | - | 0 W/m² | - |
| 1788407555 | 16.11° C | 55% | 1308.3 hPa | 0 mm | - | 0 W/m² | - |
| 1788407255 | 16.11° C | 54% | 1308.3 hPa | 0 mm | - | 0 W/m² | - |
| 1788406950 | 16.67° C | 53% | 1308.2 hPa | 0 mm | - | 0 W/m² | - |
| 1788406645 | 16.11° C | 53% | 1308.2 hPa | 0 mm | - | 0 W/m² | - |
| 1788406339 | 16.11° C | 53% | 1308.2 hPa | 0 mm | - | 0 W/m² | - |
| 1788406029 | 16.67° C | 51% | 1308.2 hPa | 0 mm | - | 0 W/m² | - |
| 1788405724 | 16.67° C | 50% | 1308.3 hPa | 0 mm | - | 0 W/m² | - |
| 1788405420 | 16.11° C | 51% | 1308 hPa | 0 mm | - | 0 W/m² | - |
| 1788405114 | 16.11° C | 52% | 1308.2 hPa | 0 mm | - | 0 W/m² | - |
* Rain latest hour (hover to see other rain measurements)
** Current wind speed in m/s (hover to see current wind gust speed)